createdAt,value
2023-02-04T00:01:41.009Z,96.38
2023-02-04T00:03:45.019Z,96.83
2023-02-04T00:05:50.081Z,96.60
2023-02-04T00:08:02.027Z,96.57
2023-02-04T00:10:08.647Z,96.01
2023-02-04T00:12:12.607Z,95.12
2023-02-04T00:14:18.086Z,95.09
2023-02-04T00:16:31.744Z,95.07
2023-02-04T00:18:36.251Z,94.99
2023-02-04T00:20:40.103Z,95.24
2023-02-04T00:22:45.302Z,94.70
2023-02-04T00:24:51.018Z,94.70
2023-02-04T00:26:55.090Z,94.51
2023-02-04T00:28:59.304Z,94.47
2023-02-04T00:31:03.715Z,94.00
2023-02-04T00:33:09.281Z,94.16
2023-02-04T00:35:14.139Z,93.96
2023-02-04T00:37:18.578Z,93.66
2023-02-04T00:39:22.970Z,93.65
2023-02-04T00:41:27.380Z,93.44
2023-02-04T00:43:31.578Z,93.35
2023-02-04T00:45:36.393Z,93.85
2023-02-04T00:47:40.587Z,93.61
2023-02-04T00:49:46.188Z,93.68
2023-02-04T00:51:50.275Z,93.03
2023-02-04T00:53:54.567Z,93.00
2023-02-04T00:55:58.477Z,93.33
2023-02-04T00:58:02.535Z,92.49
2023-02-04T01:00:08.275Z,92.56
2023-02-04T01:02:12.901Z,92.09
2023-02-04T01:04:17.066Z,91.45
2023-02-04T01:06:22.764Z,91.90
2023-02-04T01:08:27.616Z,90.97
2023-02-04T01:10:33.979Z,90.84
2023-02-04T01:12:38.175Z,90.63
2023-02-04T01:14:43.095Z,90.64
2023-02-04T01:16:47.749Z,90.20
2023-02-04T01:18:51.612Z,90.04
2023-02-04T01:20:55.507Z,89.59
2023-02-04T01:23:01.338Z,89.63
2023-02-04T01:25:05.703Z,89.07
2023-02-04T01:27:19.547Z,88.34
2023-02-04T01:29:23.769Z,88.13
2023-02-04T01:31:28.786Z,88.01
2023-02-04T01:33:33.085Z,87.52
2023-02-04T01:35:37.123Z,86.49
2023-02-04T01:37:40.862Z,86.95
2023-02-04T01:39:46.462Z,87.19
2023-02-04T01:41:50.613Z,86.77
2023-02-04T01:43:55.454Z,87.13
2023-02-04T01:45:59.852Z,87.11
2023-02-04T01:48:05.830Z,87.13
2023-02-04T01:50:13.289Z,87.25
2023-02-04T01:52:17.852Z,86.93
2023-02-04T01:54:22.340Z,86.62
2023-02-04T01:56:31.717Z,86.28
2023-02-04T01:58:35.802Z,86.72
2023-02-04T02:00:41.435Z,86.18
2023-02-04T02:02:47.843Z,86.53
2023-02-04T02:04:51.879Z,86.32
2023-02-04T02:06:59.060Z,85.98
2023-02-04T02:09:03.725Z,85.96
2023-02-04T02:11:08.120Z,86.05
2023-02-04T02:13:17.226Z,86.31
2023-02-04T02:15:22.018Z,85.97
2023-02-04T02:17:27.396Z,86.49
2023-02-04T02:19:39.642Z,85.79
2023-02-04T02:21:53.620Z,85.99
2023-02-04T02:24:01.274Z,85.39
2023-02-04T02:26:05.356Z,85.68
2023-02-04T02:28:14.628Z,86.16
2023-02-04T02:30:21.645Z,85.73
2023-02-04T02:32:25.805Z,85.05
2023-02-04T02:34:31.208Z,85.63
2023-02-04T02:36:35.383Z,85.07
2023-02-04T02:38:40.815Z,85.06
2023-02-04T02:40:47.353Z,85.35
2023-02-04T02:42:54.083Z,85.42
2023-02-04T02:44:59.878Z,85.41
2023-02-04T02:47:04.281Z,84.92
2023-02-04T02:49:08.868Z,84.44
2023-02-04T02:51:13.174Z,84.80
2023-02-04T02:53:20.997Z,84.78
2023-02-04T02:55:29.053Z,84.44
2023-02-04T02:57:39.190Z,84.49
2023-02-04T02:59:43.438Z,85.04
2023-02-04T03:01:53.553Z,84.46
2023-02-04T03:03:59.042Z,83.89
2023-02-04T03:06:08.038Z,83.77
2023-02-04T03:08:13.116Z,83.76
2023-02-04T03:10:17.230Z,84.12
2023-02-04T03:12:22.840Z,84.00
2023-02-04T03:14:29.404Z,84.09
2023-02-04T03:16:38.749Z,83.97
2023-02-04T03:18:42.860Z,83.49
2023-02-04T03:20:51.278Z,83.65
2023-02-04T03:23:01.307Z,82.89
2023-02-04T03:25:06.237Z,82.38
2023-02-04T03:27:09.807Z,82.65
2023-02-04T03:29:15.013Z,81.55
2023-02-04T03:31:21.077Z,81.35
2023-02-04T03:33:26.826Z,81.72
2023-02-04T03:35:36.420Z,81.47
2023-02-04T03:37:40.962Z,80.86
2023-02-04T03:39:45.224Z,81.33
2023-02-04T03:41:49.652Z,80.86
2023-02-04T03:43:53.871Z,80.16
2023-02-04T03:45:58.378Z,80.79
2023-02-04T03:48:04.104Z,80.71
2023-02-04T03:50:09.670Z,80.64
2023-02-04T03:52:14.050Z,80.40
2023-02-04T03:54:18.531Z,81.31
2023-02-04T03:56:22.996Z,80.98
2023-02-04T03:58:27.061Z,81.09
2023-02-04T04:00:32.840Z,80.45
2023-02-04T04:02:37.386Z,80.60
2023-02-04T04:04:43.153Z,80.41
2023-02-04T04:06:47.126Z,80.18
2023-02-04T04:08:51.004Z,80.21
2023-02-04T04:10:55.522Z,80.60
2023-02-04T04:13:00.011Z,80.58
2023-02-04T04:15:04.434Z,80.27
2023-02-04T04:17:08.756Z,80.12
2023-02-04T04:19:12.690Z,80.87
2023-02-04T04:21:17.930Z,80.45
2023-02-04T04:23:21.928Z,80.49
2023-02-04T04:25:25.819Z,80.46
2023-02-04T04:27:30.553Z,80.63
2023-02-04T04:29:35.070Z,80.62
2023-02-04T04:31:39.450Z,80.66
2023-02-04T04:33:43.952Z,80.73
2023-02-04T04:35:48.217Z,80.46
2023-02-04T04:37:53.892Z,80.28
2023-02-04T04:39:57.395Z,80.97
2023-02-04T04:42:00.771Z,80.61
2023-02-04T04:44:04.227Z,80.74
2023-02-04T04:46:08.266Z,80.55
2023-02-04T04:48:11.675Z,80.16
2023-02-04T04:50:15.541Z,80.83
2023-02-04T04:52:18.994Z,80.90
2023-02-04T04:54:23.853Z,80.96
2023-02-04T04:56:27.533Z,80.87
2023-02-04T04:58:31.000Z,80.69
2023-02-04T05:00:35.465Z,80.23
2023-02-04T05:02:39.007Z,80.34
2023-02-04T05:04:42.509Z,80.14
2023-02-04T05:06:46.140Z,80.89
2023-02-04T05:08:49.439Z,80.41
2023-02-04T05:10:55.105Z,80.38
2023-02-04T05:12:58.972Z,80.73
2023-02-04T05:15:02.410Z,80.26
2023-02-04T05:17:05.955Z,80.65
2023-02-04T05:19:09.268Z,80.55
2023-02-04T05:21:12.568Z,81.06
2023-02-04T05:23:17.287Z,80.21
2023-02-04T05:25:20.651Z,80.38
2023-02-04T05:27:25.475Z,79.88
2023-02-04T05:29:29.161Z,80.25
2023-02-04T05:31:32.672Z,80.45
2023-02-04T05:33:36.472Z,80.59
2023-02-04T05:35:39.871Z,79.72
2023-02-04T05:37:43.887Z,79.99
2023-02-04T05:39:47.820Z,79.57
2023-02-04T05:41:51.387Z,80.42
2023-02-04T05:43:56.238Z,79.51
2023-02-04T05:45:59.823Z,79.85
2023-02-04T05:48:03.316Z,80.24
2023-02-04T05:50:07.607Z,80.26
2023-02-04T05:52:11.165Z,80.03
2023-02-04T05:54:19.566Z,79.51
2023-02-04T05:56:23.004Z,80.18
2023-02-04T05:58:33.279Z,79.99
2023-02-04T06:00:38.124Z,80.29
2023-02-04T06:02:41.872Z,80.01
2023-02-04T06:04:46.010Z,80.29
2023-02-04T06:06:50.047Z,79.90
2023-02-04T06:08:54.301Z,80.20
2023-02-04T06:10:57.952Z,79.76
2023-02-04T06:13:01.643Z,79.73
2023-02-04T06:15:06.241Z,79.57
2023-02-04T06:17:11.969Z,80.11
2023-02-04T06:19:15.988Z,79.47
2023-02-04T06:21:20.151Z,79.63
2023-02-04T06:23:24.429Z,79.51
2023-02-04T06:25:28.334Z,79.79
2023-02-04T06:27:32.230Z,79.53
2023-02-04T06:29:37.597Z,79.46
2023-02-04T06:31:42.072Z,79.87
2023-02-04T06:33:48.378Z,79.61
2023-02-04T06:35:53.094Z,79.95
2023-02-04T06:37:57.027Z,79.93
2023-02-04T06:40:00.968Z,80.00
2023-02-04T06:42:05.079Z,80.25
2023-02-04T06:44:09.423Z,80.05
2023-02-04T06:46:13.597Z,79.67
2023-02-04T06:48:17.953Z,79.96
2023-02-04T06:50:23.397Z,80.16
2023-02-04T06:52:27.855Z,80.51
2023-02-04T06:54:33.298Z,79.98
2023-02-04T06:56:38.379Z,80.49
2023-02-04T06:58:42.603Z,80.18
2023-02-04T07:00:46.533Z,80.70
2023-02-04T07:02:50.702Z,80.38
2023-02-04T07:04:54.604Z,80.87
2023-02-04T07:06:59.877Z,80.18
2023-02-04T07:09:03.954Z,80.75
2023-02-04T07:11:08.141Z,80.75
2023-02-04T07:13:12.134Z,80.57
2023-02-04T07:15:16.257Z,80.51
2023-02-04T07:17:20.619Z,80.99
2023-02-04T07:19:24.552Z,80.50
2023-02-04T07:21:28.527Z,80.92
2023-02-04T07:23:33.429Z,80.63
2023-02-04T07:25:37.262Z,80.93
2023-02-04T07:27:41.123Z,80.68
2023-02-04T07:29:44.999Z,81.07
2023-02-04T07:31:51.884Z,81.07
2023-02-04T07:33:56.494Z,81.51
2023-02-04T07:36:00.609Z,81.20
2023-02-04T07:38:03.863Z,81.69
2023-02-04T07:40:11.617Z,81.11
2023-02-04T07:42:15.644Z,81.28
2023-02-04T07:44:28.337Z,81.62
2023-02-04T07:46:32.818Z,81.50
2023-02-04T07:48:36.892Z,81.32
2023-02-04T07:50:44.678Z,81.22
2023-02-04T07:52:50.440Z,81.56
2023-02-04T07:54:54.745Z,80.92
2023-02-04T07:57:00.573Z,80.90
2023-02-04T07:59:05.258Z,81.18
2023-02-04T08:01:09.206Z,81.47
2023-02-04T08:03:13.678Z,81.15
2023-02-04T08:05:17.576Z,81.22
2023-02-04T08:07:21.220Z,81.25
2023-02-04T08:09:27.405Z,81.04
2023-02-04T08:11:31.453Z,81.23
2023-02-04T08:13:36.974Z,81.78
2023-02-04T08:15:41.264Z,81.48
2023-02-04T08:17:46.038Z,81.84
2023-02-04T08:19:50.673Z,81.72
2023-02-04T08:21:54.567Z,81.62
2023-02-04T08:23:58.581Z,81.54
2023-02-04T08:26:02.772Z,81.61
2023-02-04T08:28:07.089Z,82.27
2023-02-04T08:30:13.848Z,82.28
2023-02-04T08:32:18.116Z,82.09
2023-02-04T08:34:23.916Z,82.78
2023-02-04T08:36:28.714Z,83.19
2023-02-04T08:38:33.452Z,83.67
2023-02-04T08:40:37.775Z,83.51
2023-02-04T08:42:42.079Z,83.53
2023-02-04T08:44:46.096Z,84.31
2023-02-04T08:46:52.047Z,84.12
2023-02-04T08:48:56.028Z,84.60
2023-02-04T08:50:59.988Z,84.65
2023-02-04T08:53:04.402Z,84.81
2023-02-04T08:55:10.874Z,84.69
2023-02-04T08:57:15.724Z,84.73
2023-02-04T08:59:22.156Z,84.34
2023-02-04T09:01:26.533Z,84.37
2023-02-04T09:03:31.803Z,84.71
2023-02-04T09:05:35.712Z,85.22
2023-02-04T09:07:40.161Z,84.94
2023-02-04T09:09:44.353Z,84.96
2023-02-04T09:11:49.379Z,84.57
2023-02-04T09:13:53.649Z,85.26
2023-02-04T09:15:58.460Z,84.89
2023-02-04T09:18:11.969Z,85.04
2023-02-04T09:20:17.844Z,85.35
2023-02-04T09:22:22.871Z,85.28
2023-02-04T09:24:27.362Z,85.42
2023-02-04T09:26:32.170Z,85.83
2023-02-04T09:28:36.732Z,85.62
2023-02-04T09:30:41.691Z,86.36
2023-02-04T09:32:45.690Z,86.32
2023-02-04T09:34:49.852Z,85.53
2023-02-04T09:36:55.281Z,85.53
2023-02-04T09:38:59.237Z,85.83
2023-02-04T09:41:06.037Z,85.36
2023-02-04T09:43:14.385Z,85.09
2023-02-04T09:45:22.289Z,85.31
2023-02-04T09:47:28.670Z,84.94
2023-02-04T09:49:33.934Z,85.48
2023-02-04T09:51:37.938Z,85.47
2023-02-04T09:53:43.177Z,85.22
2023-02-04T09:55:48.400Z,85.40
2023-02-04T09:57:52.373Z,85.35
2023-02-04T09:59:56.281Z,85.27
2023-02-04T10:02:03.579Z,85.14
2023-02-04T10:04:10.753Z,85.17
2023-02-04T10:06:15.934Z,85.49
2023-02-04T10:08:20.311Z,85.82
2023-02-04T10:10:27.710Z,85.41
2023-02-04T10:12:32.501Z,85.68
2023-02-04T10:14:36.223Z,85.90
2023-02-04T10:16:45.601Z,85.89
2023-02-04T10:18:51.417Z,85.34
2023-02-04T10:21:00.713Z,85.97
2023-02-04T10:23:04.556Z,86.00
2023-02-04T10:25:15.070Z,84.95
2023-02-04T10:27:20.864Z,84.97
2023-02-04T10:29:26.950Z,84.80
2023-02-04T10:31:36.376Z,84.90
2023-02-04T10:33:40.719Z,84.95
2023-02-04T10:35:49.182Z,85.38
2023-02-04T10:38:05.559Z,85.54
2023-02-04T10:40:27.681Z,85.40
2023-02-04T10:42:33.569Z,86.36
2023-02-04T10:44:37.635Z,85.97
2023-02-04T10:46:41.578Z,86.15
2023-02-04T10:48:45.580Z,86.51
2023-02-04T10:50:50.743Z,86.21
2023-02-04T10:53:18.147Z,86.51
2023-02-04T10:55:24.160Z,85.76
2023-02-04T10:57:29.976Z,85.29
2023-02-04T10:59:36.299Z,84.80
2023-02-04T11:01:40.230Z,84.48
2023-02-04T11:03:48.049Z,84.11
2023-02-04T11:05:52.792Z,84.04
2023-02-04T11:07:56.900Z,83.14
2023-02-04T11:10:01.359Z,83.28
2023-02-04T11:12:05.386Z,82.98
2023-02-04T11:14:25.146Z,82.54
2023-02-04T11:16:33.211Z,82.79
2023-02-04T11:18:48.624Z,82.35
2023-02-04T11:20:55.300Z,82.07
2023-02-04T11:22:59.222Z,81.55
2023-02-04T11:25:04.370Z,81.77
2023-02-04T11:27:09.410Z,81.84
2023-02-04T11:29:31.543Z,81.74
2023-02-04T11:31:59.377Z,81.40
2023-02-04T11:34:13.739Z,81.70
2023-02-04T11:36:19.177Z,82.10
2023-02-04T11:38:29.641Z,81.96
2023-02-04T11:40:43.353Z,82.00
2023-02-04T11:42:47.591Z,82.16
2023-02-04T11:44:54.170Z,82.13
2023-02-04T11:47:00.666Z,82.20
2023-02-04T11:49:04.652Z,82.35
2023-02-04T11:51:14.474Z,81.90
2023-02-04T11:53:18.712Z,81.11
2023-02-04T11:55:22.972Z,81.23
2023-02-04T11:57:28.539Z,81.24
2023-02-04T11:59:32.924Z,81.42
2023-02-04T12:01:37.182Z,81.56
2023-02-04T12:03:48.364Z,81.20
2023-02-04T12:05:55.541Z,81.66
2023-02-04T12:08:11.966Z,81.29
2023-02-04T12:10:25.890Z,81.40
2023-02-04T12:12:31.936Z,81.26
2023-02-04T12:14:38.101Z,81.26
2023-02-04T12:16:43.252Z,81.28
2023-02-04T12:18:48.806Z,80.86
2023-02-04T12:20:52.504Z,80.94
2023-02-04T12:22:56.133Z,80.77
2023-02-04T12:24:59.792Z,81.13
2023-02-04T12:27:03.524Z,81.33
2023-02-04T12:29:07.315Z,81.48
2023-02-04T12:31:12.035Z,81.60
2023-02-04T12:33:16.782Z,81.97
2023-02-04T12:35:22.136Z,81.85
2023-02-04T12:37:25.640Z,81.84
2023-02-04T12:39:29.350Z,81.73
2023-02-04T12:41:32.708Z,81.88
2023-02-04T12:43:36.271Z,81.89
2023-02-04T12:45:45.658Z,81.79
2023-02-04T12:47:49.112Z,82.18
2023-02-04T12:49:52.832Z,82.16
2023-02-04T12:51:59.430Z,82.00
2023-02-04T12:54:03.079Z,82.30
2023-02-04T12:56:07.709Z,82.43
2023-02-04T12:58:12.230Z,82.46
2023-02-04T13:00:18.878Z,82.52
2023-02-04T13:02:22.595Z,82.75
2023-02-04T13:04:26.669Z,83.02
2023-02-04T13:06:30.748Z,83.29
2023-02-04T13:08:35.937Z,83.27
2023-02-04T13:10:39.431Z,83.63
2023-02-04T13:12:43.230Z,83.51
2023-02-04T13:14:46.922Z,83.73
2023-02-04T13:16:50.526Z,83.39
2023-02-04T13:18:54.272Z,83.65
2023-02-04T13:20:58.188Z,83.18
2023-02-04T13:23:02.177Z,82.83
2023-02-04T13:25:08.198Z,82.01
2023-02-04T13:27:12.045Z,81.98
2023-02-04T13:29:16.858Z,82.40
2023-02-04T13:31:20.861Z,81.81
2023-02-04T13:33:25.261Z,82.13
2023-02-04T13:35:28.971Z,82.11
2023-02-04T13:37:35.211Z,82.03
2023-02-04T13:39:39.115Z,81.29
2023-02-04T13:41:44.543Z,81.17
2023-02-04T13:43:49.382Z,80.99
2023-02-04T13:45:53.607Z,81.42
2023-02-04T13:47:57.955Z,81.45
2023-02-04T13:50:02.277Z,81.12
2023-02-04T13:52:07.144Z,81.51
2023-02-04T13:54:11.687Z,81.40
2023-02-04T13:56:15.903Z,81.40
2023-02-04T13:58:21.332Z,81.88
2023-02-04T14:00:27.082Z,82.07
2023-02-04T14:02:32.193Z,82.19
2023-02-04T14:04:37.073Z,82.11
2023-02-04T14:06:43.816Z,82.16
2023-02-04T14:08:48.585Z,82.30
2023-02-04T14:10:54.760Z,82.13
2023-02-04T14:12:59.128Z,81.83
2023-02-04T14:15:05.020Z,82.12
2023-02-04T14:17:09.153Z,81.89
2023-02-04T14:19:15.432Z,81.83
2023-02-04T14:21:20.155Z,81.56
2023-02-04T14:23:24.256Z,81.51
2023-02-04T14:25:29.068Z,81.73
2023-02-04T14:27:35.501Z,81.56
2023-02-04T14:29:39.776Z,81.23
2023-02-04T14:31:45.120Z,81.22
2023-02-04T14:33:50.381Z,81.22
2023-02-04T14:35:54.352Z,81.17
2023-02-04T14:37:59.094Z,81.34
2023-02-04T14:40:02.773Z,81.00
2023-02-04T14:42:07.663Z,81.42
2023-02-04T14:44:11.384Z,81.55
2023-02-04T14:46:15.179Z,81.71
2023-02-04T14:48:21.277Z,81.64
2023-02-04T14:50:27.575Z,82.34
2023-02-04T14:52:31.508Z,81.94
2023-02-04T14:54:35.747Z,82.58
2023-02-04T14:56:40.946Z,83.04
2023-02-04T14:58:45.908Z,83.79
2023-02-04T15:00:49.842Z,84.82
2023-02-04T15:02:53.603Z,85.59
2023-02-04T15:04:59.651Z,86.38
2023-02-04T15:07:03.792Z,87.52
2023-02-04T15:09:08.609Z,88.40
2023-02-04T15:11:13.530Z,89.15
2023-02-04T15:13:17.704Z,89.84
2023-02-04T15:15:21.976Z,90.13
2023-02-04T15:17:26.345Z,90.58
2023-02-04T15:19:30.848Z,90.73
2023-02-04T15:21:36.413Z,91.32
2023-02-04T15:23:40.266Z,91.44
2023-02-04T15:25:44.010Z,91.82
2023-02-04T15:27:48.578Z,92.37
2023-02-04T15:29:53.671Z,92.36
2023-02-04T15:31:57.774Z,92.43
2023-02-04T15:34:03.972Z,92.78
2023-02-04T15:36:09.832Z,93.28
2023-02-04T15:38:15.456Z,94.06
2023-02-04T15:40:20.020Z,94.88
2023-02-04T15:42:24.066Z,96.35
2023-02-04T15:44:28.223Z,97.76
2023-02-04T15:46:32.101Z,99.70
2023-02-04T15:48:36.220Z,100.00
2023-02-04T15:50:40.365Z,100.00
2023-02-04T15:52:44.144Z,100.00
2023-02-04T15:54:54.581Z,100.00
2023-02-04T15:56:59.219Z,100.00
2023-02-04T15:59:03.730Z,100.00
2023-02-04T16:01:08.599Z,100.00
2023-02-04T16:03:12.961Z,100.00
2023-02-04T16:05:17.384Z,100.00
2023-02-04T16:07:22.270Z,100.00
2023-02-04T16:09:27.209Z,100.00
2023-02-04T16:11:33.285Z,100.00
2023-02-04T16:13:38.020Z,100.00
2023-02-04T16:15:42.904Z,100.00
2023-02-04T16:17:48.117Z,100.00
2023-02-04T16:19:52.728Z,100.00
2023-02-04T16:21:57.266Z,100.00
2023-02-04T16:24:01.974Z,100.00
2023-02-04T16:26:06.937Z,100.00
2023-02-04T16:28:12.470Z,100.00
2023-02-04T16:30:17.360Z,100.00
2023-02-04T16:32:22.072Z,100.00
2023-02-04T16:34:27.237Z,100.00
2023-02-04T16:36:31.967Z,100.00
2023-02-04T16:38:36.899Z,100.00
2023-02-04T16:40:41.737Z,100.00
2023-02-04T16:42:46.235Z,100.00
2023-02-04T16:44:52.110Z,100.00
2023-02-04T16:46:56.071Z,100.00
2023-02-04T16:48:59.887Z,100.00
2023-02-04T16:51:04.078Z,100.00
2023-02-04T16:53:10.999Z,100.00
2023-02-04T16:55:15.173Z,100.00
2023-02-04T16:57:20.246Z,100.00
2023-02-04T16:59:24.381Z,100.00
2023-02-04T17:01:30.667Z,100.00
2023-02-04T17:03:34.904Z,100.00
2023-02-04T17:05:39.780Z,100.00
2023-02-04T17:07:43.547Z,100.00
2023-02-04T17:09:47.839Z,100.00
2023-02-04T17:11:52.452Z,100.00
2023-02-04T17:13:56.835Z,100.00
2023-02-04T17:16:02.143Z,100.00
2023-02-04T17:18:08.277Z,100.00
2023-02-04T17:20:13.433Z,100.00
2023-02-04T17:22:17.806Z,100.00
2023-02-04T17:24:23.250Z,100.00
2023-02-04T17:26:28.633Z,100.00
2023-02-04T17:28:33.317Z,100.00
2023-02-04T17:30:39.937Z,100.00
2023-02-04T17:32:46.793Z,100.00
2023-02-04T17:34:55.318Z,100.00
2023-02-04T17:36:59.604Z,100.00
2023-02-04T17:39:04.554Z,100.00
2023-02-04T17:41:09.267Z,100.00
2023-02-04T17:43:13.863Z,100.00
2023-02-04T17:45:18.376Z,100.00
2023-02-04T17:47:23.439Z,100.00
2023-02-04T17:49:29.009Z,100.00
2023-02-04T17:51:35.769Z,100.00
2023-02-04T17:53:41.809Z,100.00
2023-02-04T17:55:46.307Z,100.00
2023-02-04T17:57:50.431Z,100.00
2023-02-04T17:59:54.955Z,100.00
2023-02-04T18:02:00.697Z,100.00
2023-02-04T18:04:07.187Z,100.00
2023-02-04T18:06:22.758Z,100.00
2023-02-04T18:08:31.841Z,100.00
2023-02-04T18:10:39.273Z,100.00
2023-02-04T18:12:43.561Z,100.00
2023-02-04T18:14:48.105Z,100.00
2023-02-04T18:16:55.874Z,100.00
2023-02-04T18:19:16.925Z,100.00
2023-02-04T18:21:25.097Z,100.00
2023-02-04T18:23:33.453Z,100.00
2023-02-04T18:25:39.434Z,100.00
2023-02-04T18:27:44.059Z,100.00
2023-02-04T18:29:57.151Z,100.00
2023-02-04T18:32:04.452Z,100.00
2023-02-04T18:34:21.293Z,100.00
2023-02-04T18:36:28.257Z,100.00
2023-02-04T18:38:39.693Z,100.00
2023-02-04T18:40:44.103Z,100.00
2023-02-04T18:42:49.826Z,100.00
2023-02-04T18:44:56.472Z,100.00
2023-02-04T18:47:04.297Z,100.00
2023-02-04T18:49:18.848Z,100.00
2023-02-04T18:51:29.570Z,100.00
2023-02-04T18:53:37.097Z,100.00
2023-02-04T18:55:44.468Z,100.00
2023-02-04T18:57:49.278Z,100.00
2023-02-04T18:59:55.236Z,100.00
2023-02-04T19:01:59.249Z,100.00
2023-02-04T19:04:04.763Z,100.00
2023-02-04T19:06:26.815Z,100.00
2023-02-04T19:08:37.248Z,100.00
2023-02-04T19:10:44.304Z,100.00
2023-02-04T19:12:48.125Z,100.00
2023-02-04T19:14:51.878Z,100.00
2023-02-04T19:17:01.747Z,100.00
2023-02-04T19:19:25.968Z,100.00
2023-02-04T19:21:31.489Z,100.00
2023-02-04T19:23:38.255Z,100.00
2023-02-04T19:25:47.452Z,100.00
2023-02-04T19:27:55.723Z,100.00
2023-02-04T19:30:01.353Z,100.00
2023-02-04T19:32:25.071Z,100.00
2023-02-04T19:34:31.062Z,100.00
2023-02-04T19:36:38.156Z,100.00
2023-02-04T19:38:45.544Z,100.00
2023-02-04T19:40:53.224Z,100.00
2023-02-04T19:43:05.669Z,100.00
2023-02-04T19:45:19.717Z,100.00
2023-02-04T19:47:29.175Z,100.00
2023-02-04T19:49:38.550Z,100.00
2023-02-04T19:51:42.541Z,100.00
2023-02-04T19:53:51.938Z,100.00
2023-02-04T19:55:58.596Z,100.00
2023-02-04T19:58:11.790Z,100.00
2023-02-04T20:00:38.741Z,100.00
2023-02-04T20:02:43.322Z,100.00
2023-02-04T20:04:55.900Z,100.00
2023-02-04T20:06:59.757Z,100.00
2023-02-04T20:09:09.085Z,100.00
2023-02-04T20:11:38.816Z,100.00
2023-02-04T20:13:43.871Z,100.00
2023-02-04T20:15:48.797Z,100.00
2023-02-04T20:17:54.417Z,100.00
2023-02-04T20:20:14.496Z,100.00
2023-02-04T20:22:47.565Z,100.00
2023-02-04T20:24:57.030Z,100.00
2023-02-04T20:27:04.612Z,100.00
2023-02-04T20:29:27.293Z,100.00
2023-02-04T20:31:40.841Z,100.00
2023-02-04T20:33:51.885Z,100.00
2023-02-04T20:36:26.897Z,100.00
2023-02-04T20:38:31.379Z,100.00
2023-02-04T20:40:38.310Z,100.00
2023-02-04T20:42:48.527Z,100.00
2023-02-04T20:44:54.709Z,100.00
2023-02-04T20:47:13.255Z,100.00
2023-02-04T20:49:24.753Z,100.00
2023-02-04T20:51:29.560Z,100.00
2023-02-04T20:53:40.837Z,100.00
2023-02-04T20:55:49.969Z,100.00
2023-02-04T20:58:00.531Z,100.00
2023-02-04T21:00:15.085Z,100.00
2023-02-04T21:02:21.339Z,100.00
2023-02-04T21:04:31.507Z,100.00
2023-02-04T21:06:37.741Z,100.00
2023-02-04T21:08:45.651Z,100.00
2023-02-04T21:10:50.244Z,100.00
2023-02-04T21:13:01.467Z,100.00
2023-02-04T21:15:29.553Z,100.00
2023-02-04T21:17:34.649Z,100.00
2023-02-04T21:19:38.679Z,100.00
2023-02-04T21:21:43.293Z,100.00
2023-02-04T21:23:47.628Z,100.00
2023-02-04T21:25:51.801Z,100.00
2023-02-04T21:27:58.030Z,100.00
2023-02-04T21:30:03.516Z,100.00
2023-02-04T21:32:08.858Z,100.00
2023-02-04T21:34:13.010Z,100.00
2023-02-04T21:36:17.024Z,100.00
2023-02-04T21:38:21.132Z,100.00
2023-02-04T21:40:25.738Z,100.00
2023-02-04T21:42:31.145Z,100.00
2023-02-04T21:44:36.484Z,100.00
2023-02-04T21:46:40.589Z,100.00
2023-02-04T21:48:45.440Z,100.00
2023-02-04T21:50:49.435Z,100.00
2023-02-04T21:52:56.983Z,100.00
2023-02-04T21:55:01.937Z,100.00
2023-02-04T21:57:06.965Z,100.00
2023-02-04T21:59:11.225Z,100.00
2023-02-04T22:01:16.907Z,100.00
2023-02-04T22:03:21.328Z,100.00
2023-02-04T22:05:26.130Z,100.00
2023-02-04T22:07:31.345Z,100.00
2023-02-04T22:09:35.374Z,100.00
2023-02-04T22:11:39.680Z,100.00
2023-02-04T22:13:45.713Z,100.00
2023-02-04T22:15:49.686Z,100.00
2023-02-04T22:17:56.474Z,100.00
2023-02-04T22:20:00.278Z,100.00
2023-02-04T22:22:05.059Z,100.00
2023-02-04T22:24:09.638Z,100.00
2023-02-04T22:26:14.498Z,100.00
2023-02-04T22:28:19.062Z,100.00
2023-02-04T22:30:24.148Z,100.00
2023-02-04T22:32:28.909Z,100.00
2023-02-04T22:34:34.587Z,100.00
2023-02-04T22:36:39.439Z,100.00
2023-02-04T22:38:44.124Z,100.00
2023-02-04T22:40:50.651Z,100.00
2023-02-04T22:42:56.417Z,100.00
2023-02-04T22:45:02.701Z,100.00
2023-02-04T22:47:07.469Z,100.00
2023-02-04T22:49:12.676Z,100.00
2023-02-04T22:51:18.751Z,100.00
2023-02-04T22:53:23.272Z,100.00
2023-02-04T22:55:27.883Z,100.00
2023-02-04T22:57:32.832Z,100.00
2023-02-04T22:59:37.881Z,100.00
2023-02-04T23:01:42.287Z,100.00
2023-02-04T23:03:46.897Z,100.00
2023-02-04T23:05:51.059Z,100.00
2023-02-04T23:07:56.606Z,100.00
2023-02-04T23:10:01.148Z,100.00
2023-02-04T23:12:14.357Z,100.00
2023-02-04T23:14:19.142Z,100.00
2023-02-04T23:16:23.743Z,100.00
2023-02-04T23:18:28.454Z,99.62
2023-02-04T23:20:33.444Z,99.38
2023-02-04T23:22:38.205Z,100.00
2023-02-04T23:24:44.782Z,99.98
2023-02-04T23:26:49.073Z,99.86
2023-02-04T23:28:53.599Z,100.00
2023-02-04T23:30:58.507Z,100.00
2023-02-04T23:33:03.910Z,100.00
2023-02-04T23:35:13.615Z,100.00
2023-02-04T23:37:18.268Z,99.87
2023-02-04T23:39:23.176Z,99.83
2023-02-04T23:41:28.925Z,99.31
2023-02-04T23:43:33.232Z,99.85
2023-02-04T23:45:38.329Z,99.01
2023-02-04T23:47:43.148Z,99.35
2023-02-04T23:49:47.986Z,99.18
2023-02-04T23:51:52.850Z,99.56
2023-02-04T23:53:57.288Z,99.43
2023-02-04T23:56:01.520Z,99.39
2023-02-04T23:58:07.858Z,99.66
